RED LANMANTEN - 19 KM le 09/06/2019

Recherche par Dossard : par Nom : par Club :

Place Dossard Nom Prenom Cat. Pl. Cat. Temps Club Sexe
1 255 BARTHOLOME CYRIL SE 1 01:50:20 TRIATHLON PAYS DU NEUBOURG M
2 416 HILDERALD ISNARD V2 1 01:56:04 SAMARITAINE TEAM TRAIL M
3 450 BERNARD PATRICK SE 2 01:58:53 CSLG TRAIL TRINITE M
4 316 AUSTER XAVIER V1 1 02:01:26 LES BAROUDEURS MARTINIQUE M
5 372 CACLIN NICOLAS SE 3 02:02:05 GOLDEN STAR M
6 276 DUVAL BENOIT SE 4 02:03:43 M
7 274 LOWENSKY MIGUEL V1 2 02:03:44 M
8 253 DURAND CYRIL V1 3 02:08:32 M
9 411 DÉROZÉ MAURILLE V2 2 02:09:07 M
10 348 HAJJI FAUSTINE V1 1 02:09:14 GOLDEN STAR F
11 353 CELOTTO LAURENT SE 5 02:10:49 M
12 454 RENEL GILBERT V3 1 02:11:13 M
13 350 IGLESIAS TEDDY SE 6 02:14:54 TIGER TEAM 972 M
14 367 ESARD EDDY V1 4 02:16:52 GOLDEN STAR M
15 402 CAYOL EDDY V1 5 02:17:23 TCHIMBE RAID M
16 344 ELOIDIN RUFFIN V2 3 02:18:53 M
17 106 HONORE THIERRY SE 7 02:18:58 GOLDEN STAR M
18 313 AGNOLY FRANCOIS V2 4 02:19:15 UFOLEP M
19 456 FORTUNE ISAAC SE 8 02:19:57 TIGER TEAM 972 M
20 376 VALIAME VALENTIN V1 6 02:20:32 M
21 373 NAUD STEPHANE SE 9 02:20:47 GOLDEN STAR M
22 334 HONTCHARENKO GRÉGORY V1 7 02:20:50 M
23 326 LECLERC MELANIE SE 1 02:22:39 CSLG TRAIL TRINITÉ F
24 342 FAVREAU LOGAN SE 10 02:22:54 FAVREAU M
25 251 PISMONT THIBAUT SE 11 02:23:43 M
26 408 GADAL JEROME V1 8 02:23:59 M
27 435 YALA YANN V1 9 02:25:49 GOLDEN STAR M
28 422 BAILBLEO ALAN SE 12 02:27:12 M
29 399 SIDNEY JEAN-MARC V2 5 02:27:47 AM DES COUREURS DE FOND M
30 466 TOUCHE BENOIT V2 6 02:28:02 M
31 345 NELSON RODRIGUE SE 13 02:29:34 GOLDEN LION ST-JOSEPH M
32 378 GRONDIN JEAN-FRANCOIS V1 10 02:30:10 TCHIMBE RAID M
33 265 DINTIMILLE JEREMIE SE 14 02:31:08 ASSAUT SAINT-PIERRE M
34 266 LACAVALERIE CEDRIC SE 15 02:31:08 ASSAUT SAINT-PIERRE M
35 395 MONTJEAN VÉRONIQUE SE 2 02:32:42 F
36 295 DOYEN THIERRY ROGER V1 11 02:32:44 LES BAROUDEURS MARTINIQUE M
37 335 SAGE REMI V1 12 02:33:03 AIGLON DU LAMENTIN M
38 357 ELOISE JEAN-MARC V3 2 02:33:23 M
39 437 AMBROISINE JEAN-LOĎC V1 13 02:35:54 M
40 302 HOULLIER TONNY V1 14 02:35:54 HOULLIER M
41 254 RENEAUME FRANCOIS V2 7 02:36:48 AIGLON DU LAMENTIN M
42 264 VIRAYIE JEAN V2 8 02:38:01 ASSAUT SAINT-PIERRE M
43 401 CRATERE DANIEL V2 9 02:38:06 ASC SARA M
44 298 MARRAUD DES GROTTES FABRICE V1 15 02:38:36 AIGLON DU LAMENTIN M
45 323 CLOTAIL HERVE V2 10 02:38:51 M
46 461 JOSEPH CHRIS SE 16 02:39:16 M
47 371 BAZABAS NEFERTI V1 2 02:39:16 F
48 329 BRENEOL DENIS V1 16 02:40:07 M
49 417 REVELLE DENIS V3 3 02:40:14 KAWANN TRIATHLON M
50 347 QUESNEL YANNICK V2 11 02:40:18 M
51 432 GIBARROUX VERONIQUE EDENAH V2 1 02:41:22 F
52 271 SHUM-KUEN FREDERIC SE 17 02:42:00 M
53 412 TOMASI JOSE V3 4 02:42:03 FR MORNE PITAUL M
54 383 MONTLOUIS-FÉLICITÉ JULES V2 12 02:43:07 M
55 269 MADELENAT JEAN-CHARLES V1 17 02:45:17 M
56 421 LACLEF OLIVIER V1 18 02:46:10 M
57 272 CIDALISE-MONTAISE FRANCK-OLIVIER V1 19 02:46:10 TCHIMBE RAID M
58 307 GROS-DESORMEAUX SANDRINE V1 3 02:46:14 GOLDEN STAR F
59 332 COBB MARINE SE 3 02:46:48 CSLG DE LA MARTINIQUE F
60 387 DEL OLMO JOACHIM SE 18 02:46:57 M
61 452 GIANGRANDE LAETICIA ES 1 02:47:03 F
62 358 MARIE-CATHERINE TEDDY V1 20 02:47:47 M
63 324 BRITHMER MATHIAS V2 13 02:48:26 AM DES COUREURS DE FOND M
64 396 LE DUFF YANN V1 21 02:48:27 GOLDEN STAR M
65 386 PAILLETTE JUSTIN SE 19 02:48:42 M
66 400 RIGAUDY CORINNE V1 4 02:49:51 F
67 363 PHULPIN NICOLAS V1 22 02:50:02 TIGER TEAM 972 M
68 390 JEREMIE JESSIE SE 4 02:50:17 CG OEUVRES SOCIALES HOSPITALIERES F
69 328 FRIGNAC ARNAUD SE 20 02:51:32 M
70 319 BALMY ANNETTE V1 5 02:54:25 GOLDEN STAR F
71 360 BASTARDOZ CLAIRE SE 5 02:55:06 AVIRON CLUB FRAPPEZ DES AILES 233 F
72 413 MANGIN NATHALIE SE 6 02:55:34 F
73 310 RAGOT ERICK V1 23 02:57:33 M
74 419 ALCINDOR FRANTZ V2 14 02:57:43 M
75 459 EMONIDES MICHEL V2 15 02:59:12 TCHIMBE RAID M
76 336 VILLAGEOIS ANNICK V2 2 02:59:37 F
77 424 JOLLY MATHIEU V1 24 02:59:45 M
78 314 CHEVON MATHIEU SE 21 02:59:49 M
79 444 COLOTROC JEAN-PHILIPPE V2 16 03:01:07 CLUB MANIKOU ORGANISATIONS M
80 275 DIDIER AUDREY SE 7 03:02:08 F
81 356 VAN DAMME CHRISTOPHE V1 25 03:02:09 M
82 299 FARINA JUSTINE SE 8 03:02:23 F
83 300 BATISSE CLEMENCE SE 9 03:02:23 F
84 263 VENNAT CÉDRIC SE 22 03:02:45 M
85 405 VARISOT JESSICA V1 6 03:02:50 F
86 425 GERMANY AXEL SE 23 03:03:04 M
87 441 GAUVIN NICOLAS V1 26 03:03:19 M
88 445 EKOMIE YOHANN SE 24 03:03:46 GOLDEN STAR M
89 338 FONTEAU YDA SE 10 03:04:13 AM DES COUREURS DE FOND F
90 431 MONIER GREGORY V1 27 03:04:52 GOLDEN STAR M
91 430 JOSEPH KARENE SE 11 03:04:52 GOLDEN STAR F
92 292 MAXIMIN PATRICIA V2 3 03:05:17 ATHLETIC CLUB SALEEN F
93 397 LEDUFF MYRIAM V1 7 03:05:47 GOLDEN STAR F
94 259 CLAROUS THOMAS SE 25 03:06:22 M
95 303 GERVAIS LAURENT V1 28 03:06:23 BANAMART M
96 315 RANGASSAMY ELODIE SE 12 03:07:11 F
97 331 ARNAUD NICOLAS SE 26 03:07:12 M
98 404 SIMPHOR DIDIER SE 27 03:07:13 AIGLON M
99 257 CORIDON HERVE V1 29 03:10:31 CLUB MANIKOU ORGANISATIONS M
100 362 CAPOUL KAREN-ANN V2 4 03:10:32 MANIKOU F
101 352 MAY GERARD V2 17 03:10:33 M
102 305 MARQUISE KATE V2 5 03:10:33 MANIKOU / TLT972 F
103 392 SANCE MORGANE SE 13 03:10:33 F
104 385 DAVID MARION SE 14 03:10:33 PAILLETTE F
105 333 LOUISON JEAN-MICHEL V2 18 03:10:52 M
106 296 GUSTO PHILIPPE V2 19 03:11:07 LES BAROUDEURS MARTINIQUE M
107 330 LAPRET JEAN-PIERRE V2 20 03:11:29 M
108 380 DEBES SANDRINE V1 8 03:11:29 F
109 379 DEBES DIDIER V1 30 03:11:29 M
110 388 DEMONIERE EDGARD V3 5 03:11:33 ASC ZENITH M
111 287 GASCHEN GERALDINE V1 9 03:11:45 SURCOUF DIVE F
112 273 CIDALISE-MONTAISE SANDRA V1 10 03:13:09 TCHIMBE RAID F
113 423 PREVOS JULIE SE 15 03:13:29 F
114 288 BLAISON LIONEL V1 31 03:14:39 SURCOUF DIVE M
115 429 JULIUS KARINE SE 16 03:14:58 CLUB MANIKOU ORGANISATIONS F
116 451 PHILEMOND MONTOUT SAMMY SE 28 03:14:59 M
117 346 LAMY ARTHUR CA 1 03:14:59 M
118 280 FONTAINE FRANTZ V2 21 03:15:25 LH 220 M
119 293 WICQUART VINCENT SE 29 03:17:17 M
120 349 PEYRARD CATHERINE V1 11 03:18:17 TLT972 F
121 449 ZIE MARIE HELENE V2 6 03:19:27 CTR F
122 448 DEFOI LUCE V3 1 03:19:34 CTR F
123 414 PIVERT FRED PIVERT V2 22 03:19:39 M
124 403 SURIC SABRINA V1 12 03:19:49 AM DES COUREURS DE FOND F
125 453 VANITOU PATRICK V2 23 03:20:10 M
126 268 SASSI AIMEN SE 30 03:20:25 RSMA-M M
127 311 RAGOT FRANCKY V1 32 03:21:18 M
128 446 MARIE-JEANNE GUETTY V1 13 03:21:21 AIGLON DU LAMENTIN F
129 381 KINET FRÉDÉRIC SE 31 03:21:25 M
130 374 MAGDELEINE ALEXANDRE V3 6 03:23:32 VOTRECLUB M
131 434 TAUZIA MURIEL V2 7 03:24:38 TCHIMBE RAID F
132 420 APPIN WILLY SE 32 03:25:39 M
133 252 SIDOINE STÉPHANIE SE 17 03:25:50 LA TRIBUCHON F
134 391 CLAIRICIA FABIENNE V1 14 03:27:51 SAM HORIZON 2000 F
135 262 MARAJO VIRAYIE ODILE V2 8 03:28:04 ASSAUT SAINT-PIERRE F
136 389 GAUTHERON BERENGERE SE 18 03:29:30 CLUB COLONIAL F
137 267 POULAILLE ANDY SE 33 03:29:36 CLUB MANIKOU ORGANISATIONS M
138 464 LAYEUX SOFIA V2 9 03:29:47 FR MORNE PITAULT F
139 340 BERTE JEAN LUC V1 33 03:30:14 FFRANDONNEE M
140 325 SAINTE-CROIX BÉNÉDICTE SE 19 03:31:40 F
141 258 DENORME ANNE SE 20 03:31:40 F
142 337 SAINTE-CROIX SANDRINE V1 15 03:32:32 F
143 291 BAZIN SOPHIE V1 16 03:32:47 LES BAROUDEURS MARTINIQUE F
144 355 THEODAT CHRISTELLE SE 21 03:32:47 TCHIMBE RAID F
145 318 LACROSSE KARYN V1 17 03:33:31 F
146 359 OUENSANGA PATRICK V2 24 03:33:52 AM DES COUREURS DE FOND M
147 426 BRIGITTE MARIE-DENISE V2 10 03:35:04 CLUB MANIKOU ORGANISATIONS F
148 286 SIDOINE SYLVIA V3 2 03:35:21 LA TRIBUCHON F
149 427 BOCLE PATRICK V2 25 03:36:45 TCHIMBE RAID M
150 309 COURJOL GUY V3 7 03:37:48 M
151 301 BERNARD ISABELLE V1 18 03:38:04 F
152 366 BADOL VIRGINY V1 19 03:39:01 F
153 370 MEZEN AGNČS SE 22 03:41:17 MEZEN F
154 322 PULVAL-DADY THIERRY V2 26 03:41:17 MAIRIE S. (FT-DE-FRANCE) M
155 384 ALFRED NICOLE V1 20 03:41:17 MAIRIE S. (FT-DE-FRANCE) F
156 375 MAGDELEINE YVETTE V2 11 03:41:55 VOTRECLUB F
157 297 MUDARD MIREILLE V1 21 03:42:39 MANIKOU F
158 308 MARAN WESLEY JU 1 03:42:40 M
159 368 RINNA ROSELYNE V1 22 03:42:57 F
160 341 PLATEL MARJORIE SE 23 03:43:04 F
161 418 RENE-CORAIL CATHERINE V2 12 03:43:10 F
162 304 GAILLARD GAELLE SE 24 03:43:35 SAM HORIZON 2000 F
163 499 VETRO Claudie V2 13 03:44:02 F
164 457 BONHEUR JACQUES-MICHEL SE 34 03:46:10 GOLDEN STAR M
165 458 PAUL-JOSEPH SANDRINE V1 23 03:46:10 GOLDEN STAR F
166 369 EDJAM CLAUDE V1 34 03:49:11 M
167 261 LEONIL DUVAL SYLVIE V2 14 03:49:26 CLUB MANIKOU ORGANISATIONS F
168 393 PUJAR AMÉLIE V1 24 03:50:38 F
169 394 PUJAR ADELE SE 25 03:51:28 F
170 365 VALIAME MICHEL V3 8 03:53:15 M
171 312 DAGOBERT RODRIGUE V1 35 03:53:16 TCHIMBE RAID M
172 282 HELOISE JONATHAN SE 35 03:56:00 M
173 317 FILIN HELENE V2 15 03:57:26 F
174 428 MOTY JEAN-LOUIS V2 27 03:58:27 TCHIMBE RAID M
175 377 DESERT YVON V2 28 03:59:32 M
176 354 SHORTIE ANGÉLIQUE SE 26 03:59:47 F
177 364 LIMET LAETICIA SE 27 04:01:25 F
178 436 DESIRE DANIELE V2 16 04:06:38 CLUB MANIKOU ORGANISATIONS F
179 294 RAYMOND AGNČS SE 28 04:06:43 F
180 440 ETIENNE JEAN ELIE V1 36 04:10:52 M
181 406 HO YEE-SING V1 37 04:12:30 M
182 320 CHARLES-EDOUARD CLAIRE V1 25 04:18:27 F
183 442 ELANA VALERIE V1 26 04:18:53 F
184 463 MARIE-SAINTE DAVID V1 38 04:25:37 FR MORNE PITAULT M
185 306 LOTAUT BEATRICE V1 27 04:34:15 CLUB MANIKOU ORGANISATIONS F
186 409 DORMOY VIRGINIE V1 28 04:36:06 F
187 410 DORMOY PIERRE V2 29 04:36:08 M
188 290 DESERABLE SOPHIE SE 29 04:40:40 F
189 289 AUBIN - NICOLAS MAUDE V1 29 04:40:40 F
190 361 CAYREL JULIEN SE 36 04:40:41 M
191 277 POMPIERE GUIYOULE PEGGY V2 17 04:55:12 CLUB MANIKOU F